MST,Max TemperatureF,Mean TemperatureF,Min TemperatureF,Max Dew PointF,MeanDew PointF,Min DewpointF,Max Humidity, Mean Humidity, Min Humidity, Max Sea Level PressureIn, Mean Sea Level PressureIn, Min Sea Level PressureIn, Max VisibilityMiles, Mean VisibilityMiles, Min VisibilityMiles, Max Wind SpeedMPH, Mean Wind SpeedMPH, Max Gust SpeedMPH,PrecipitationIn, CloudCover, Events, WindDirDegrees
2013-1-1,31,17,3,20,9,2,91,70,49,30.34,30.20,30.05,10,8,0,21,8,26,0.00,3,Fog,292
2013-1-2,32,25,18,20,15,10,81,62,43,30.42,30.27,30.12,10,10,6,28,14,37,T,7,Snow,312
2013-1-3,38,20,2,13,6,-1,95,65,35,30.45,30.38,30.28,10,10,10,13,7,15,0.00,0,,295
2013-1-4,42,26,10,15,9,2,73,52,30,30.31,30.22,30.12,10,10,10,13,6,15,0.00,0,,294
2013-1-5,39,24,9,18,11,5,76,58,40,30.41,30.30,30.14,10,10,10,25,10,32,0.00,0,,298
2013-1-6,48,25,2,24,11,-1,91,62,33,30.34,30.17,29.96,10,10,10,16,3,23,0.00,0,,73
2013-1-7,50,37,23,18,12,7,68,43,18,30.10,29.93,29.76,10,10,10,21,7,25,0.00,1,,259
2013-1-8,49,41,32,23,21,18,61,48,34,30.19,29.94,29.71,10,10,10,33,17,41,0.00,0,,270
2013-1-9,61,45,28,23,19,15,69,43,17,30.24,30.11,29.94,10,10,10,29,12,36,0.00,0,,186
2013-1-10,49,36,22,23,19,16,78,54,29,29.92,29.68,29.46,10,10,10,16,8,21,0.00,0,,115
2013-1-11,28,17,6,27,13,-2,100,83,66,30.03,29.56,29.36,10,4,0,31,15,41,0.02,6,Fog-Snow,331
2013-1-12,12,6,0,2,-1,-5,87,75,63,30.26,30.16,29.99,10,10,5,22,11,29,T,4,Snow,310
2013-1-13,15,7,-1,3,0,-6,87,70,53,30.37,30.29,30.07,10,10,10,16,5,18,T,3,,304
2013-1-14,16,2,-12,3,-7,-18,87,71,55,30.48,30.35,30.12,10,10,5,15,3,21,0.00,0,,215
2013-1-15,31,12,-8,17,7,-9,69,60,50,30.28,30.21,30.14,10,10,9,21,11,29,T,6,,279
2013-1-16,45,34,23,20,16,13,63,50,36,30.41,30.27,30.15,10,10,10,24,11,30,0.00,1,,279
2013-1-17,50,34,18,17,14,11,74,48,22,30.55,30.37,30.17,10,10,9,15,6,18,0.00,0,Snow,258
2013-1-18,54,41,27,13,10,8,47,32,16,30.15,30.05,29.97,10,10,10,30,15,40,0.00,0,,270
2013-1-19,55,40,24,21,13,7,81,48,15,30.28,30.17,30.01,10,10,10,22,9,28,0.00,0,,297
2013-1-20,35,24,12,21,16,10,88,68,47,30.40,30.31,30.14,10,10,10,24,8,32,0.00,1,,348
2013-1-21,44,25,6,18,12,3,91,64,36,30.36,30.22,30.09,10,10,10,12,4,13,0.00,1,,135
2013-1-22,55,36,16,14,9,2,73,43,12,30.17,30.10,30.03,10,10,10,15,6,20,0.00,0,,300
2013-1-23,55,37,19,19,12,6,81,48,15,30.22,30.15,30.07,10,10,10,18,6,22,0.00,0,,99
2013-1-24,62,40,18,29,21,16,84,53,21,30.11,30.03,29.91,10,9,2,35,14,43,0.00,1,,265
2013-1-25,59,39,18,29,24,16,96,62,28,30.16,30.09,30.00,10,10,10,17,6,24,0.00,0,,280
2013-1-26,61,43,25,32,27,21,85,57,28,30.00,29.87,29.68,10,10,10,21,7,28,0.00,0,,147
2013-1-27,59,45,30,36,30,26,85,59,33,29.72,29.67,29.60,10,10,10,16,7,23,T,4,Rain,79
2013-1-28,33,29,25,29,27,23,100,93,85,29.83,29.72,29.65,10,6,1,17,7,22,0.02,7,Snow,345
2013-1-29,34,22,9,24,15,3,100,69,38,30.12,29.89,29.78,10,8,0,28,11,33,0.01,2,Fog-Snow,318
2013-1-30,37,19,0,21,11,-1,95,70,44,30.10,29.98,29.88,10,10,8,26,7,35,0.00,3,,326
2013-1-31,30,23,16,20,14,7,75,64,53,30.28,30.16,29.97,10,10,9,20,8,26,T,8,,299